OMRK

Details ICAO OMRK (RKT)
Name Ras Al Khaimah International
Region United Arab Emirates
Timezone Asia/Dubai (UTC+4.0)
Plans Departing 138
Arriving 48
Stats Elevation 94 ft / 29 m (AMSL)
Location 25.613400° 55.938800°
Runways 1
Magnetic Variation 2.093° E
Sunrise 2018-10-16 02:16:16 UTC / 2018-10-16 06:16:16 Local
Sunset 2018-10-16 13:49:44 UTC / 2018-10-16 17:49:44 Local
Advertisement - Login to hide

Runways

ID Width Length Bearing (true/mag) Surface Threshold Overrun Markings Lighting
16 148 ft / 45 m 12,348 ft / 3,764 m 164.85° / 162.76° ASPHALT 0 ft / 0 m 0 ft / 0 m PREC-APP EDGE THRESHOLD SALS
34 148 ft / 45 m 12,348 ft / 3,764 m 344.85° / 342.76° ASPHALT 0 ft / 0 m 0 ft / 0 m PREC-APP EDGE THRESHOLD ALSF-I

Map

Weather


0- 5 10 15 20 25 30 35+ Temperature / °C

Clouds and Precipitation
Forecast for 2018-10-16 00:00 UTC. Updated an hour ago

Ground ~20,000 ft ~40,000 ft Winds

METAR

OMRK 152200Z 19003KT CAVOK 26/21 Q1013 A2993

TAF

TAF OMRK 151652Z 1518/1700 30010KT 8000 NSC BECMG 1518/1520 VRB02KT PROB30 1600/1605 4000 HZ BECMG 1607/1609 33012KT PROB30 TEMPO 1611/1615 VRB18G30KT 1500 BLDU FEW035TCU BECMG 1615/1617 VRB02KT

Frequencies

Ground 121.60 MHz
Recorded 126.07 MHz ATIS
Tower 118.25 MHz
Warning: Do not use this data for real-world aviation or navigation. No guarantee of current accuracy is given.